createdAt,value
2019-02-26T00:01:50.717Z,98619.17
2019-02-26T00:06:55.800Z,98605.64
2019-02-26T00:12:01.524Z,98587.50
2019-02-26T00:17:08.729Z,98583.98
2019-02-26T00:22:13.869Z,98579.80
2019-02-26T00:27:18.831Z,98549.55
2019-02-26T00:32:23.565Z,98555.98
2019-02-26T00:37:28.424Z,98566.37
2019-02-26T00:42:36.056Z,98565.83
2019-02-26T00:47:41.174Z,98557.28
2019-02-26T00:52:47.038Z,98559.81
2019-02-26T00:57:51.785Z,98540.77
2019-02-26T01:02:56.524Z,98538.15
2019-02-26T01:08:01.174Z,98517.66
2019-02-26T01:13:07.266Z,98513.80
2019-02-26T01:18:12.284Z,98507.98
2019-02-26T01:23:18.729Z,98505.00
2019-02-26T01:28:24.832Z,98488.64
2019-02-26T01:33:30.283Z,98495.98
2019-02-26T01:38:37.438Z,98500.40
2019-02-26T01:43:41.938Z,98495.62
2019-02-26T01:48:46.679Z,98498.36
2019-02-26T01:53:53.271Z,98481.28
2019-02-26T01:59:02.150Z,98460.52
2019-02-26T02:04:03.887Z,98465.52
2019-02-26T02:09:11.340Z,98442.63
2019-02-26T02:14:17.065Z,98433.54
2019-02-26T02:19:23.399Z,98428.55
2019-02-26T02:24:28.275Z,98421.37
2019-02-26T02:29:33.899Z,98431.67
2019-02-26T02:34:40.037Z,98426.98
2019-02-26T02:39:44.973Z,98429.30
2019-02-26T02:44:52.564Z,98424.61
2019-02-26T02:49:55.896Z,98439.20
2019-02-26T02:55:00.722Z,98440.03
2019-02-26T03:00:13.962Z,98446.27
2019-02-26T03:05:18.810Z,98448.11
2019-02-26T03:10:26.017Z,98453.98
2019-02-26T03:15:32.782Z,98444.08
2019-02-26T03:20:39.805Z,98453.95
2019-02-26T03:25:44.517Z,98444.33
2019-02-26T03:30:49.683Z,98454.56
2019-02-26T03:35:54.441Z,98455.95
2019-02-26T03:41:01.161Z,98463.70
2019-02-26T03:46:05.451Z,98459.86
2019-02-26T03:51:10.186Z,98451.84
2019-02-26T03:56:17.068Z,98442.00
2019-02-26T04:01:21.558Z,98436.96
2019-02-26T04:06:26.363Z,98417.69
2019-02-26T04:11:31.002Z,98396.95
2019-02-26T04:16:37.780Z,98384.72
2019-02-26T04:22:21.001Z,98376.72
2019-02-26T04:27:48.098Z,98368.85
2019-02-26T04:33:14.059Z,98351.96
2019-02-26T04:38:34.241Z,98330.15
2019-02-26T04:43:47.813Z,98319.80
2019-02-26T04:48:52.644Z,98317.17
2019-02-26T04:53:59.480Z,98315.13
2019-02-26T04:59:06.208Z,98296.63
2019-02-26T05:04:10.038Z,98294.53
2019-02-26T05:09:15.954Z,98285.72
2019-02-26T05:14:23.425Z,98273.82
2019-02-26T05:19:27.129Z,98276.14
2019-02-26T05:24:31.873Z,98275.73
2019-02-26T05:29:40.418Z,98286.84
2019-02-26T05:34:45.348Z,98289.53
2019-02-26T05:39:51.692Z,98300.16
2019-02-26T05:44:59.077Z,98297.44
2019-02-26T05:50:03.806Z,98301.08
2019-02-26T05:55:08.835Z,98307.86
2019-02-26T06:00:18.220Z,98315.03
2019-02-26T06:05:23.255Z,98320.86
2019-02-26T06:10:29.841Z,98325.73
2019-02-26T06:15:34.938Z,98316.48
2019-02-26T06:20:40.003Z,98304.64
2019-02-26T06:25:44.725Z,98307.38
2019-02-26T06:30:50.585Z,98307.78
2019-02-26T06:35:59.839Z,98288.72
2019-02-26T06:41:06.557Z,98281.44
2019-02-26T06:46:12.284Z,98284.03
2019-02-26T06:51:19.081Z,98286.09
2019-02-26T06:56:23.960Z,98281.56
2019-02-26T07:01:32.376Z,98268.56
2019-02-26T07:06:38.658Z,98271.59
2019-02-26T07:11:43.408Z,98272.77
2019-02-26T07:16:48.149Z,98270.23
2019-02-26T07:21:53.081Z,98264.88
2019-02-26T07:26:58.863Z,98249.73
2019-02-26T07:32:03.507Z,98235.70
2019-02-26T07:37:09.333Z,98205.91
2019-02-26T07:42:16.430Z,98200.14
2019-02-26T07:47:22.108Z,98197.52
2019-02-26T07:52:28.444Z,98208.08
2019-02-26T07:57:33.259Z,98208.98
2019-02-26T08:02:38.001Z,98210.74
2019-02-26T08:07:44.422Z,98189.73
2019-02-26T08:12:48.795Z,98176.67
2019-02-26T08:17:57.364Z,98172.72
2019-02-26T08:23:01.360Z,98169.98
2019-02-26T08:28:07.069Z,98160.59
2019-02-26T08:33:11.711Z,98136.59
2019-02-26T08:38:16.414Z,98126.30
2019-02-26T08:43:21.309Z,98115.67
2019-02-26T08:48:27.008Z,98113.97
2019-02-26T08:53:32.251Z,98094.89
2019-02-26T08:58:40.629Z,98077.77
2019-02-26T09:03:45.540Z,98060.73
2019-02-26T09:08:51.059Z,98041.09
2019-02-26T09:13:59.617Z,98038.76
2019-02-26T09:19:05.280Z,98036.52
2019-02-26T09:24:10.166Z,98033.30
2019-02-26T09:29:17.326Z,98023.20
2019-02-26T09:34:26.025Z,98033.52
2019-02-26T09:39:29.463Z,98018.19
2019-02-26T09:44:35.916Z,98016.70
2019-02-26T09:49:41.151Z,98012.86
2019-02-26T09:54:48.104Z,98005.53
2019-02-26T09:59:54.669Z,97987.67
2019-02-26T10:04:58.615Z,97972.57
2019-02-26T10:10:05.448Z,97954.17
2019-02-26T10:15:13.849Z,97952.04
2019-02-26T10:20:22.809Z,97954.77
2019-02-26T10:25:29.376Z,97938.80
2019-02-26T10:30:38.298Z,97930.73
2019-02-26T10:35:45.085Z,97929.83
2019-02-26T10:40:53.965Z,97920.63
2019-02-26T10:45:56.670Z,97898.48
2019-02-26T10:51:06.030Z,97883.95
2019-02-26T10:56:09.637Z,97862.30
2019-02-26T11:01:14.387Z,97843.45
2019-02-26T11:06:19.652Z,97820.91
2019-02-26T11:11:24.786Z,97810.61
2019-02-26T11:16:31.035Z,97799.17
2019-02-26T11:21:36.421Z,97792.27
2019-02-26T11:26:45.534Z,97769.59
2019-02-26T11:31:51.251Z,97773.38
2019-02-26T11:37:02.795Z,97759.16
2019-02-26T11:42:11.547Z,97742.98
2019-02-26T11:47:20.533Z,97746.98
2019-02-26T11:52:24.641Z,97735.25
2019-02-26T11:57:30.222Z,97727.25
2019-02-26T12:02:37.055Z,97727.56
2019-02-26T12:07:42.852Z,97710.84
2019-02-26T12:12:48.412Z,97691.64
2019-02-26T12:17:54.546Z,97679.50
2019-02-26T12:23:00.174Z,97667.19
2019-02-26T12:28:10.767Z,97651.03
2019-02-26T12:33:18.119Z,97644.64
2019-02-26T12:38:25.250Z,97646.58
2019-02-26T12:43:33.230Z,97627.14
2019-02-26T12:48:41.801Z,97619.41
2019-02-26T12:53:49.153Z,97601.63
2019-02-26T12:58:54.440Z,97589.67
2019-02-26T13:03:57.876Z,97575.33
2019-02-26T13:09:02.736Z,97565.45
2019-02-26T13:14:09.017Z,97545.30
2019-02-26T13:19:21.408Z,97536.09
2019-02-26T13:24:26.100Z,97531.84
2019-02-26T13:29:28.155Z,97537.73
2019-02-26T13:34:32.896Z,97515.58
2019-02-26T13:39:38.446Z,97510.22
2019-02-26T13:44:44.118Z,97500.22
2019-02-26T13:49:48.964Z,97487.61
2019-02-26T13:54:57.196Z,97476.40
2019-02-26T14:00:01.838Z,97466.67
2019-02-26T14:05:10.359Z,97444.39
2019-02-26T14:10:26.681Z,97425.89
2019-02-26T14:15:35.898Z,97428.17
2019-02-26T14:20:40.663Z,97405.16
2019-02-26T14:25:47.492Z,97391.67
2019-02-26T14:30:54.120Z,97388.16
2019-02-26T14:35:59.705Z,97388.68
2019-02-26T14:41:04.920Z,97398.17
2019-02-26T14:46:09.711Z,97389.00
2019-02-26T14:51:14.551Z,97377.78
2019-02-26T14:56:21.614Z,97373.39
2019-02-26T15:01:27.954Z,97367.04
2019-02-26T15:06:34.104Z,97356.50
2019-02-26T15:11:41.031Z,97365.15
2019-02-26T15:16:48.057Z,97357.39
2019-02-26T15:21:54.672Z,97340.20
2019-02-26T15:26:59.637Z,97349.78
2019-02-26T15:32:04.263Z,97362.73
2019-02-26T15:37:09.324Z,97381.05
2019-02-26T15:42:20.951Z,97382.23
2019-02-26T15:47:30.468Z,97366.45
2019-02-26T15:52:36.335Z,97367.80
2019-02-26T15:57:41.402Z,97354.42
2019-02-26T16:02:47.686Z,97350.03
2019-02-26T16:07:55.426Z,97355.70
2019-02-26T16:13:04.802Z,97356.70
2019-02-26T16:18:11.087Z,97365.38
2019-02-26T16:23:15.872Z,97384.41
2019-02-26T16:28:20.925Z,97393.22
2019-02-26T16:33:27.202Z,97418.52
2019-02-26T16:38:32.044Z,97435.44
2019-02-26T16:43:38.344Z,97441.28
2019-02-26T16:48:44.707Z,97462.80
2019-02-26T16:53:49.550Z,97464.48
2019-02-26T16:58:54.218Z,97470.45
2019-02-26T17:03:59.550Z,97481.53
2019-02-26T17:09:06.350Z,97490.77
2019-02-26T17:14:14.767Z,97499.46
2019-02-26T17:19:19.721Z,97510.17
2019-02-26T17:24:24.803Z,97513.47
2019-02-26T17:29:32.483Z,97526.99
2019-02-26T17:34:42.742Z,97540.02
2019-02-26T17:39:49.454Z,97529.69
2019-02-26T17:44:55.111Z,97518.39
2019-02-26T17:50:02.787Z,97509.25
2019-02-26T17:55:10.331Z,97496.67
2019-02-26T18:00:21.348Z,97481.55
2019-02-26T18:05:26.166Z,97493.97
2019-02-26T18:10:31.216Z,97478.20
2019-02-26T18:15:36.081Z,97474.87
2019-02-26T18:20:41.489Z,97470.20
2019-02-26T18:25:46.172Z,97460.48
2019-02-26T18:30:51.319Z,97453.91
2019-02-26T18:35:56.588Z,97450.84
2019-02-26T18:41:01.410Z,97460.24
2019-02-26T18:46:06.262Z,97469.20
2019-02-26T18:51:14.315Z,97478.11
2019-02-26T18:56:19.552Z,97505.98
2019-02-26T19:01:24.579Z,97496.84
2019-02-26T19:06:29.324Z,97522.22
2019-02-26T19:11:34.164Z,97526.46
2019-02-26T19:16:38.911Z,97542.03
2019-02-26T19:21:44.455Z,97529.39
2019-02-26T19:26:49.211Z,97515.03
2019-02-26T19:31:54.160Z,97515.33
2019-02-26T19:37:00.542Z,97520.27
2019-02-26T19:42:06.788Z,97514.03
2019-02-26T19:47:11.582Z,97508.33
2019-02-26T19:52:18.981Z,97501.50
2019-02-26T19:57:30.188Z,97500.14
2019-02-26T20:02:38.294Z,97520.38
2019-02-26T20:07:45.793Z,97525.12
2019-02-26T20:12:51.666Z,97519.91
2019-02-26T20:17:58.059Z,97517.77
2019-02-26T20:23:05.202Z,97533.05
2019-02-26T20:28:09.368Z,97520.34
2019-02-26T20:33:14.231Z,97519.67
2019-02-26T20:38:19.527Z,97528.41
2019-02-26T20:43:25.950Z,97527.80
2019-02-26T20:48:30.915Z,97537.55
2019-02-26T20:53:38.836Z,97543.64
2019-02-26T20:58:44.937Z,97547.83
2019-02-26T21:03:52.307Z,97525.14
2019-02-26T21:08:57.145Z,97525.83
2019-02-26T21:14:02.974Z,97528.59
2019-02-26T21:19:07.991Z,97526.75
2019-02-26T21:24:12.912Z,97521.87
2019-02-26T21:29:17.751Z,97518.36
2019-02-26T21:34:22.500Z,97516.91
2019-02-26T21:39:27.348Z,97526.30
2019-02-26T21:44:32.094Z,97536.34
2019-02-26T21:49:37.395Z,97533.86
2019-02-26T21:54:42.874Z,97538.03
2019-02-26T21:59:50.187Z,97535.55
2019-02-26T22:04:55.788Z,97538.89
2019-02-26T22:10:00.628Z,97542.70
2019-02-26T22:15:10.001Z,97544.31
2019-02-26T22:20:23.418Z,97555.36
2019-02-26T22:25:21.905Z,97568.17
2019-02-26T22:30:28.425Z,97567.06
2019-02-26T22:35:32.929Z,97568.27
2019-02-26T22:40:37.667Z,97573.69
2019-02-26T22:45:42.411Z,97578.24
2019-02-26T22:50:47.151Z,97572.56
2019-02-26T22:55:51.997Z,97570.13
2019-02-26T23:01:01.119Z,97565.00
2019-02-26T23:06:07.427Z,97557.30
2019-02-26T23:11:14.854Z,97561.43
2019-02-26T23:16:20.634Z,97555.66
2019-02-26T23:21:26.072Z,97545.88
2019-02-26T23:26:32.388Z,97546.20
2019-02-26T23:31:37.181Z,97538.34
2019-02-26T23:36:43.457Z,97540.44
2019-02-26T23:41:49.233Z,97536.33
2019-02-26T23:46:53.968Z,97535.17
2019-02-26T23:51:59.577Z,97543.20
2019-02-26T23:57:04.375Z,97549.09
